Time;durP1;ratioP1;P1;durP2;ratioP2;P2;SDS_P1;SDS_P2;PMS_P1;PMS_P2;Temp;Humidity;BMP_temperature;BMP_pressure;BME280_temperature;BME280_humidity;BME280_pressure;Samples;Min_cycle;Max_cycle;Signal;HPM_P1;HPM_P2
2023/10/30 00:01:55;;;;;;;3.63;1.70;;;;;;;13.14;90.20;99502.88;4175874;28;20029;-65
2023/10/30 00:04:00;;;;;;;6.72;2.20;;;;;;;13.17;89.52;99494.13;4174692;28;20074;-65
2023/10/30 00:06:02;;;;;;;4.88;1.38;;;;;;;13.14;89.20;99484.63;4177030;28;20037;-65
2023/10/30 00:08:06;;;;;;;5.78;2.05;;;;;;;13.08;89.74;99495.09;4177358;28;20048;-65
2023/10/30 00:10:10;;;;;;;2.70;1.60;;;;;;;13.08;89.87;99497.72;4177235;28;20041;-65
2023/10/30 00:12:12;;;;;;;2.80;1.40;;;;;;;12.99;90.45;99503.91;4173347;28;20063;-65
2023/10/30 00:14:15;;;;;;;5.13;1.52;;;;;;;13.06;90.11;99512.53;4176159;28;20457;-65
2023/10/30 00:16:18;;;;;;;5.18;1.42;;;;;;;13.13;90.02;99510.72;4173415;28;20047;-65
2023/10/30 00:18:20;;;;;;;5.28;1.67;;;;;;;12.99;90.36;99516.09;4180020;28;20048;-65
2023/10/30 00:20:24;;;;;;;5.18;1.45;;;;;;;13.03;90.38;99520.41;4179294;28;20491;-65
2023/10/30 00:22:27;;;;;;;3.67;1.52;;;;;;;13.03;90.79;99528.22;4178621;28;20045;-65
2023/10/30 00:24:32;;;;;;;6.88;1.60;;;;;;;12.99;90.62;99545.66;4176587;28;20045;-65
2023/10/30 00:26:36;;;;;;;5.88;2.58;;;;;;;13.07;90.50;99535.16;4176033;28;20039;-65
2023/10/30 00:28:39;;;;;;;3.97;1.63;;;;;;;13.14;90.34;99547.25;4179028;28;20493;-65
2023/10/30 00:30:42;;;;;;;2.97;1.98;;;;;;;12.98;90.44;99561.31;4174955;28;20195;-65
2023/10/30 00:32:45;;;;;;;5.00;1.30;;;;;;;12.94;90.63;99560.50;4180700;28;20028;-65
2023/10/30 00:34:47;;;;;;;4.03;1.65;;;;;;;12.97;90.49;99554.41;4178293;28;20067;-65
2023/10/30 00:36:51;;;;;;;2.72;1.23;;;;;;;13.01;90.97;99556.97;4176786;28;20033;-65
2023/10/30 00:38:54;;;;;;;3.40;1.35;;;;;;;12.98;90.48;99566.53;4176147;28;20029;-65
2023/10/30 00:40:57;;;;;;;6.55;1.80;;;;;;;13.01;90.90;99562.16;4178864;28;20080;-65
2023/10/30 00:43:00;;;;;;;2.80;1.38;;;;;;;12.98;91.02;99562.22;4178394;28;20029;-65
2023/10/30 00:45:04;;;;;;;8.15;2.10;;;;;;;13.02;90.94;99553.44;4190237;28;20064;-65
2023/10/30 00:47:07;;;;;;;6.07;2.35;;;;;;;13.08;90.19;99562.94;4176525;28;20033;-66
2023/10/30 00:49:10;;;;;;;4.93;1.90;;;;;;;13.08;90.45;99563.84;4176660;28;20084;-65
2023/10/30 00:51:13;;;;;;;8.00;2.72;;;;;;;13.09;89.39;99560.31;4170414;28;20049;-65
2023/10/30 00:53:17;;;;;;;4.80;2.17;;;;;;;13.00;90.24;99570.00;4176493;28;20068;-66
2023/10/30 00:55:20;;;;;;;3.90;1.70;;;;;;;12.90;90.67;99580.53;4169214;28;20065;-65
2023/10/30 00:57:23;;;;;;;4.75;2.40;;;;;;;12.89;91.22;99575.31;4175546;28;20045;-65
2023/10/30 00:59:26;;;;;;;4.60;1.88;;;;;;;12.97;90.54;99580.50;4177784;28;20037;-66
2023/10/30 01:01:29;;;;;;;3.78;1.90;;;;;;;12.84;90.68;99585.81;4175923;28;20048;-65
2023/10/30 01:03:32;;;;;;;4.70;2.00;;;;;;;12.80;91.51;99589.31;4172881;28;20091;-63
2023/10/30 01:05:35;;;;;;;6.55;1.85;;;;;;;12.86;90.77;99593.63;4174969;28;20032;-63
2023/10/30 01:07:38;;;;;;;4.10;1.83;;;;;;;12.84;90.82;99591.03;4178334;28;20041;-65
2023/10/30 01:09:43;;;;;;;5.20;1.80;;;;;;;12.81;91.24;99593.66;4173727;28;20040;-65
2023/10/30 01:11:46;;;;;;;;;;;;;;;12.85;90.42;99603.19;4173938;28;20052;-65
2023/10/30 01:13:49;;;;;;;5.35;1.50;;;;;;;12.88;90.55;99586.66;4173582;28;20382;-65
2023/10/30 01:15:53;;;;;;;3.25;1.63;;;;;;;12.79;90.83;99587.59;4164632;28;20034;-65
2023/10/30 01:17:55;;;;;;;4.00;1.58;;;;;;;12.85;90.20;99584.03;4168525;28;20319;-66
2023/10/30 01:20:01;;;;;;;3.58;1.90;;;;;;;12.93;89.56;99575.28;4172025;28;20028;-66
2023/10/30 01:22:04;;;;;;;4.47;2.00;;;;;;;12.90;90.08;99570.09;4174575;28;20453;-65
2023/10/30 01:24:08;;;;;;;5.85;2.00;;;;;;;12.85;90.30;99573.63;4170464;28;20037;-65
2023/10/30 01:26:12;;;;;;;5.13;2.00;;;;;;;12.93;90.13;99580.50;4172265;28;20049;-65
2023/10/30 01:28:15;;;;;;;7.50;2.60;;;;;;;12.89;90.35;99575.31;4167506;28;20037;-65
2023/10/30 01:30:17;;;;;;;3.40;1.65;;;;;;;12.90;90.37;99570.09;4170129;28;20083;-65
2023/10/30 01:32:20;;;;;;;2.35;1.30;;;;;;;12.94;90.10;99565.72;4175970;28;20032;-65
2023/10/30 01:34:23;;;;;;;11.60;1.77;;;;;;;12.95;90.03;99563.97;4175842;28;20072;-65
2023/10/30 01:36:26;;;;;;;5.60;1.83;;;;;;;12.99;89.47;99553.47;4177852;28;20534;-65
2023/10/30 01:38:29;;;;;;;7.38;2.20;;;;;;;12.97;90.06;99555.25;4177964;28;20033;-66
2023/10/30 01:40:32;;;;;;;5.35;1.63;;;;;;;12.95;90.08;99551.78;4177415;28;20517;-65
2023/10/30 01:42:37;;;;;;;4.72;2.00;;;;;;;13.07;88.43;99549.06;4187641;28;20072;-65
2023/10/30 01:44:53;;;;;;;;;;;;;;;12.90;89.09;99538.78;4175547;28;20059;-65
2023/10/30 01:46:57;;;;;;;3.95;1.67;;;;;;;12.84;90.06;99541.47;4169749;28;20417;-65
2023/10/30 01:49:01;;;;;;;5.75;1.55;;;;;;;12.89;89.58;99536.19;4167762;28;20052;-65
2023/10/30 01:51:05;;;;;;;4.05;1.63;;;;;;;12.91;89.64;99534.44;4171012;28;20033;-66
2023/10/30 01:53:08;;;;;;;10.90;1.80;;;;;;;12.93;89.41;99523.09;4175717;28;20045;-66
2023/10/30 01:55:12;;;;;;;7.18;2.08;;;;;;;12.95;89.19;99520.47;4174280;28;20047;-65
2023/10/30 01:57:16;;;;;;;4.30;1.25;;;;;;;12.95;88.50;99517.00;4166094;28;20065;-66
2023/10/30 01:59:20;;;;;;;5.35;1.90;;;;;;;12.98;87.53;99502.19;4175603;28;20487;-65
2023/10/30 02:01:24;;;;;;;7.55;1.50;;;;;;;12.81;88.83;99494.53;4170709;28;20046;-65
2023/10/30 02:03:26;;;;;;;4.28;1.40;;;;;;;12.79;89.46;99490.22;4169890;28;20080;-66
2023/10/30 02:05:29;;;;;;;5.05;1.52;;;;;;;12.75;89.42;99498.06;4174598;28;20104;-66
2023/10/30 02:07:32;;;;;;;10.05;2.25;;;;;;;12.78;89.60;99491.13;4166925;28;20036;-65
2023/10/30 02:09:35;;;;;;;7.97;2.05;;;;;;;12.75;89.13;99503.28;4173010;28;20067;-65
2023/10/30 02:11:38;;;;;;;7.68;2.20;;;;;;;12.71;89.32;99511.16;4174370;28;20029;-65
2023/10/30 02:13:42;;;;;;;5.70;1.98;;;;;;;12.78;88.36;99518.06;4171180;28;20452;-65
2023/10/30 02:15:47;;;;;;;5.40;1.80;;;;;;;12.71;88.58;99526.81;4176681;28;20071;-65
2023/10/30 02:17:50;;;;;;;;;;;;;;;12.55;88.85;99529.56;4173258;28;20666;-65
2023/10/30 02:19:53;;;;;;;8.60;1.50;;;;;;;12.61;88.38;99527.78;4172893;28;20020;-65
2023/10/30 02:21:56;;;;;;;14.05;3.35;;;;;;;12.55;88.71;99531.31;4170762;28;20037;-65
2023/10/30 02:24:06;;;;;;;9.25;1.60;;;;;;;12.55;88.76;99536.53;4176250;28;20061;-65
2023/10/30 02:26:11;;;;;;;5.13;2.53;;;;;;;12.58;88.86;99526.91;4179595;28;20507;-65
2023/10/30 02:28:13;;;;;;;6.25;2.17;;;;;;;12.61;88.84;99525.19;4177900;28;20056;-66
2023/10/30 02:30:16;;;;;;;5.55;1.70;;;;;;;12.56;88.81;99515.66;4175779;28;20106;-66
2023/10/30 02:32:19;;;;;;;5.97;2.17;;;;;;;12.58;88.71;99510.41;4173773;28;20124;-65
2023/10/30 02:34:22;;;;;;;8.27;2.30;;;;;;;12.49;88.88;99505.28;4166216;28;20568;-65
2023/10/30 02:36:25;;;;;;;8.13;2.05;;;;;;;12.50;89.29;99502.69;4175474;28;20107;-65
2023/10/30 02:38:28;;;;;;;6.07;1.50;;;;;;;12.58;88.72;99497.38;4166964;28;20621;-65
2023/10/30 02:40:31;;;;;;;7.18;1.77;;;;;;;12.45;88.99;99496.63;4170151;28;20051;-65
2023/10/30 02:42:35;;;;;;;5.30;1.42;;;;;;;12.45;88.95;99482.75;4169934;28;20423;-65
2023/10/30 02:44:39;;;;;;;6.80;1.60;;;;;;;12.53;88.36;99471.34;4176164;28;20118;-65
2023/10/30 02:46:41;;;;;;;8.13;1.45;;;;;;;12.52;88.14;99480.06;4171409;28;20411;-65
2023/10/30 02:48:44;;;;;;;6.07;1.48;;;;;;;12.41;88.66;99489.69;4176274;28;20068;-66
2023/10/30 02:50:48;;;;;;;9.35;1.83;;;;;;;12.46;88.53;99484.47;4177431;28;20124;-66
2023/10/30 02:52:51;;;;;;;4.18;1.33;;;;;;;12.46;88.07;99481.88;4152531;28;20116;-65
2023/10/30 02:54:53;;;;;;;11.35;1.70;;;;;;;12.43;88.52;99472.31;4178631;28;20327;-66
2023/10/30 02:56:57;;;;;;;10.35;1.52;;;;;;;12.45;88.48;99473.16;4168395;28;20567;-65
2023/10/30 02:59:01;;;;;;;7.70;1.92;;;;;;;12.34;88.80;99475.88;4173164;28;20403;-66
2023/10/30 03:01:06;;;;;;;5.00;1.65;;;;;;;12.43;89.05;99474.94;4176516;28;20082;-65
2023/10/30 03:03:09;;;;;;;7.40;2.58;;;;;;;12.43;88.69;99466.25;4167802;28;20469;-66
2023/10/30 03:05:12;;;;;;;5.40;1.67;;;;;;;12.49;88.09;99464.44;4176388;28;20036;-66
2023/10/30 03:07:16;;;;;;;4.13;1.30;;;;;;;12.39;88.60;99460.19;4176943;28;20087;-65
2023/10/30 03:09:19;;;;;;;6.40;2.28;;;;;;;12.50;87.88;99457.47;4172733;28;20037;-65
2023/10/30 03:11:22;;;;;;;6.80;1.75;;;;;;;12.38;88.46;99461.94;4175085;28;20041;-65
2023/10/30 03:13:26;;;;;;;3.53;1.80;;;;;;;12.43;88.60;99454.09;4176913;28;20048;-65
2023/10/30 03:15:30;;;;;;;8.13;2.20;;;;;;;12.42;88.32;99446.28;4173538;28;20116;-65
2023/10/30 03:17:33;;;;;;;;;;;;;;;12.33;88.61;99428.97;4170892;28;20139;-66
2023/10/30 03:19:36;;;;;;;3.72;1.40;;;;;;;12.34;88.93;99434.19;4175441;28;19921;-65
2023/10/30 03:21:39;;;;;;;9.18;1.83;;;;;;;12.26;88.93;99449.00;4177539;28;20777;-66
2023/10/30 03:23:42;;;;;;;4.93;1.58;;;;;;;12.33;88.77;99460.25;4169889;28;20460;-66
2023/10/30 03:25:45;;;;;;;5.28;1.65;;;;;;;12.42;88.44;99454.94;4176883;28;20037;-66
2023/10/30 03:27:48;;;;;;;5.13;1.60;;;;;;;12.45;88.33;99460.13;4158086;28;20041;-66
2023/10/30 03:29:51;;;;;;;6.78;1.38;;;;;;;12.40;88.33;99459.31;4175688;28;20091;-66
2023/10/30 03:31:55;;;;;;;6.25;1.80;;;;;;;12.49;88.22;99469.66;4173775;28;20061;-66
2023/10/30 03:33:58;;;;;;;7.22;1.80;;;;;;;12.47;88.00;99465.31;4174610;28;20443;-66
2023/10/30 03:36:02;;;;;;;5.85;1.15;;;;;;;12.37;88.11;99469.78;4175914;28;20052;-66
2023/10/30 03:38:06;;;;;;;5.13;1.25;;;;;;;12.51;87.57;99467.91;4177079;28;20043;-66
2023/10/30 03:40:10;;;;;;;5.18;1.52;;;;;;;12.36;87.90;99468.03;4178199;28;20033;-65
2023/10/30 03:42:13;;;;;;;4.28;1.60;;;;;;;12.36;87.73;99461.09;4177430;28;20136;-65
2023/10/30 03:44:17;;;;;;;7.32;1.67;;;;;;;12.42;88.09;99456.69;4177851;28;20045;-65
2023/10/30 03:46:20;;;;;;;7.60;1.60;;;;;;;12.37;87.26;99454.16;4175581;28;20041;-65
2023/10/30 03:48:23;;;;;;;8.77;1.58;;;;;;;12.46;87.04;99458.41;4176723;28;20037;-65
2023/10/30 03:50:26;;;;;;;6.85;1.55;;;;;;;12.48;87.36;99457.50;4172622;28;20033;-65
2023/10/30 03:52:29;;;;;;;4.35;1.58;;;;;;;12.55;86.34;99443.50;4171268;28;20071;-65
2023/10/30 03:54:32;;;;;;;5.05;1.25;;;;;;;12.49;86.83;99446.19;4165887;28;20614;-64
2023/10/30 03:56:35;;;;;;;2.95;1.35;;;;;;;12.43;87.24;99453.22;4174957;28;20041;-64
2023/10/30 03:58:38;;;;;;;2.50;1.10;;;;;;;12.38;87.44;99450.63;4177407;28;20442;-65
2023/10/30 04:00:41;;;;;;;2.85;1.15;;;;;;;12.39;87.21;99457.59;4177104;28;20102;-65
2023/10/30 04:02:44;;;;;;;3.47;1.00;;;;;;;12.35;87.74;99458.50;4173736;28;20048;-64
2023/10/30 04:04:48;;;;;;;5.05;1.27;;;;;;;12.37;87.91;99467.19;4174019;28;20063;-65
2023/10/30 04:06:51;;;;;;;3.42;0.93;;;;;;;12.42;87.81;99470.59;4178280;28;20041;-65
2023/10/30 04:08:54;;;;;;;4.05;1.10;;;;;;;12.42;87.51;99488.84;4171512;28;20064;-65
2023/10/30 04:10:57;;;;;;;2.03;0.73;;;;;;;12.43;87.76;99484.50;4172541;28;20051;-66
2023/10/30 04:13:00;;;;;;;2.42;1.00;;;;;;;12.64;86.05;99488.63;4170345;28;20041;-65
2023/10/30 04:15:03;;;;;;;3.17;0.90;;;;;;;12.44;87.04;99486.22;4172952;28;20407;-65
2023/10/30 04:17:06;;;;;;;2.92;0.95;;;;;;;12.37;87.32;99495.84;4193353;28;20068;-65
2023/10/30 04:19:09;;;;;;;2.83;1.02;;;;;;;12.42;87.17;99498.41;4175853;28;20096;-65
2023/10/30 04:21:14;;;;;;;3.05;1.00;;;;;;;12.49;86.80;99493.13;4174723;28;20095;-65
2023/10/30 04:23:17;;;;;;;2.00;0.90;;;;;;;12.39;87.46;99500.16;4176096;28;20071;-65
2023/10/30 04:25:19;;;;;;;4.38;1.25;;;;;;;12.44;87.19;99496.63;4175210;28;20048;-65
2023/10/30 04:27:22;;;;;;;4.20;1.67;;;;;;;12.51;87.02;99496.59;4169748;28;20037;-64
2023/10/30 04:29:26;;;;;;;4.35;0.95;;;;;;;12.43;86.95;99497.53;4172566;28;20049;-65
2023/10/30 04:31:29;;;;;;;4.38;1.30;;;;;;;12.50;86.86;99497.47;4176041;28;20475;-65
2023/10/30 04:33:32;;;;;;;6.03;1.20;;;;;;;12.40;87.13;99491.47;4175836;28;20041;-65
2023/10/30 04:35:34;;;;;;;3.20;1.08;;;;;;;12.37;88.10;99490.63;4174660;28;20036;-65
2023/10/30 04:37:39;;;;;;;4.25;0.93;;;;;;;12.34;88.24;99491.53;4176826;28;20037;-65
2023/10/30 04:39:41;;;;;;;8.48;1.38;;;;;;;12.39;88.26;99483.66;4169101;28;20132;-65
2023/10/30 04:41:44;;;;;;;6.93;1.33;;;;;;;12.39;88.52;99487.13;4171227;28;20491;-65
2023/10/30 04:43:46;;;;;;;3.42;1.15;;;;;;;12.51;88.26;99480.94;4172399;28;20033;-65
2023/10/30 04:45:49;;;;;;;2.70;1.13;;;;;;;12.46;88.09;99479.25;4175293;28;20041;-65
2023/10/30 04:47:55;;;;;;;5.20;1.30;;;;;;;12.46;88.59;99479.25;4169533;28;20041;-65
2023/10/30 04:49:57;;;;;;;4.25;1.67;;;;;;;12.51;88.17;99488.78;4171982;28;21471;-65
2023/10/30 04:52:00;;;;;;;6.38;1.10;;;;;;;12.47;88.08;99487.06;4175665;28;20395;-65
2023/10/30 04:54:05;;;;;;;3.47;0.80;;;;;;;12.51;88.25;99485.28;4176571;28;20380;-65
2023/10/30 04:56:09;;;;;;;3.80;1.30;;;;;;;12.54;88.25;99473.09;4177030;28;20036;-65
2023/10/30 04:58:12;;;;;;;5.07;1.55;;;;;;;12.55;87.52;99473.94;4171995;28;20088;-65
2023/10/30 05:00:16;;;;;;;2.55;1.00;;;;;;;12.52;87.56;99460.94;4170459;28;20763;-65
2023/10/30 05:02:19;;;;;;;4.07;1.40;;;;;;;12.50;87.55;99463.56;4175073;28;20099;-65
2023/10/30 05:04:22;;;;;;;3.53;0.95;;;;;;;12.49;87.44;99463.59;4171748;28;20048;-65
2023/10/30 05:06:25;;;;;;;3.15;0.95;;;;;;;12.43;87.82;99474.09;4179885;28;20468;-65
2023/10/30 05:08:28;;;;;;;2.03;0.80;;;;;;;12.48;88.09;99474.88;4173738;28;20033;-65
2023/10/30 05:10:32;;;;;;;4.47;1.40;;;;;;;12.59;87.37;99475.66;4180440;28;20056;-64
2023/10/30 05:12:35;;;;;;;3.45;0.88;;;;;;;12.44;87.86;99478.38;4183486;28;20405;-65
2023/10/30 05:14:38;;;;;;;3.65;1.00;;;;;;;12.48;88.19;99473.13;4175623;28;20045;-64
2023/10/30 05:16:41;;;;;;;3.55;1.17;;;;;;;12.44;88.16;99481.88;4179358;28;20041;-64
2023/10/30 05:18:44;;;;;;;3.10;1.13;;;;;;;12.44;88.38;99487.09;4174384;28;20041;-65
2023/10/30 05:20:47;;;;;;;4.70;0.88;;;;;;;12.45;88.13;99499.22;4178211;28;20044;-65
2023/10/30 05:22:50;;;;;;;4.72;1.00;;;;;;;12.40;88.44;99514.91;4181710;28;20045;-64
2023/10/30 05:24:51;;;;;;;5.22;1.27;;;;;;;12.46;88.82;99510.53;4176395;28;20041;-64
2023/10/30 05:26:56;;;;;;;0.50;0.50;;;;;;;12.48;88.60;99517.44;4180583;28;20033;-64
2023/10/30 05:28:59;;;;;;;1.90;0.98;;;;;;;12.50;88.70;99522.66;4177061;28;20037;-64
2023/10/30 05:31:05;;;;;;;3.83;0.85;;;;;;;12.55;88.51;99510.44;4171311;28;20043;-64
2023/10/30 05:33:09;;;;;;;5.60;1.20;;;;;;;12.53;88.64;99525.25;4177764;28;20071;-64
2023/10/30 05:35:12;;;;;;;2.42;0.82;;;;;;;12.55;88.48;99520.88;4174664;28;20517;-64
2023/10/30 05:37:15;;;;;;;3.17;1.17;;;;;;;12.55;88.84;99531.31;4170282;28;20509;-64
2023/10/30 05:39:18;;;;;;;3.22;1.10;;;;;;;12.57;88.59;99535.63;4176204;28;20040;-64
2023/10/30 05:41:21;;;;;;;5.57;1.08;;;;;;;12.68;88.06;99512.06;4175332;28;20045;-64
2023/10/30 05:43:25;;;;;;;3.65;1.00;;;;;;;12.63;87.49;99526.00;4179048;28;20029;-64
2023/10/30 05:45:28;;;;;;;3.03;1.00;;;;;;;12.52;87.98;99526.97;4172168;28;20527;-64
2023/10/30 05:47:31;;;;;;;2.45;0.68;;;;;;;12.50;88.38;99543.50;4178656;28;20033;-65
2023/10/30 05:49:35;;;;;;;3.13;0.95;;;;;;;12.52;88.39;99545.22;4178550;28;20045;-65
2023/10/30 05:51:38;;;;;;;3.00;1.17;;;;;;;12.51;88.65;99540.91;4176575;28;20124;-65
2023/10/30 05:53:42;;;;;;;4.50;1.13;;;;;;;12.60;88.32;99534.75;4178763;28;20033;-65
2023/10/30 05:55:46;;;;;;;2.95;0.82;;;;;;;12.56;88.24;99549.53;4175639;28;20045;-64
2023/10/30 05:57:49;;;;;;;2.03;0.88;;;;;;;12.55;88.35;99558.22;4177528;28;20029;-64
2023/10/30 05:59:53;;;;;;;2.35;0.75;;;;;;;12.56;88.38;99565.19;4173266;28;20511;-64
2023/10/30 06:01:55;;;;;;;5.45;1.25;;;;;;;12.57;88.87;99564.31;4175840;28;20484;-65
2023/10/30 06:03:58;;;;;;;5.72;1.10;;;;;;;12.59;88.78;99579.94;4177100;28;20061;-65
2023/10/30 06:06:00;;;;;;;3.00;1.17;;;;;;;12.59;88.62;99579.94;4172889;28;20334;-65
2023/10/30 06:08:03;;;;;;;2.40;1.13;;;;;;;12.61;89.05;99561.69;4170822;28;20037;-65
2023/10/30 06:10:09;;;;;;;5.00;1.02;;;;;;;12.70;88.14;99546.81;4173966;28;20084;-65
2023/10/30 06:12:12;;;;;;;2.67;1.08;;;;;;;12.72;87.34;99528.56;4174721;28;20103;-66
2023/10/30 06:14:15;;;;;;;4.80;1.20;;;;;;;12.70;86.73;99522.47;4178473;28;20132;-65
2023/10/30 06:16:19;;;;;;;5.50;1.10;;;;;;;12.65;87.05;99506.03;4172927;28;20088;-65
2023/10/30 06:18:23;;;;;;;2.30;1.30;;;;;;;12.58;87.53;99502.59;4178754;28;20071;-65
2023/10/30 06:20:27;;;;;;;2.50;1.30;;;;;;;12.57;87.70;99506.97;4176564;28;21106;-66
2023/10/30 06:22:30;;;;;;;;;;;;;;;12.43;87.97;99510.56;4171686;28;20404;-65
2023/10/30 06:24:34;;;;;;;3.97;2.15;;;;;;;12.42;88.80;99517.50;4177264;28;19978;-65
2023/10/30 06:26:40;;;;;;;2.33;0.90;;;;;;;12.45;88.43;99540.94;4177743;28;20483;-66
2023/10/30 06:28:44;;;;;;;3.55;1.30;;;;;;;12.48;88.68;99564.38;4173627;28;20037;-65
2023/10/30 06:30:45;;;;;;;2.03;1.20;;;;;;;12.52;88.74;99562.63;4174655;28;20037;-65
2023/10/30 06:32:50;;;;;;;4.80;1.60;;;;;;;12.53;88.80;99548.72;4177056;28;20530;-64
2023/10/30 06:34:53;;;;;;;4.53;1.50;;;;;;;12.58;88.55;99539.94;4172971;28;20086;-65
2023/10/30 06:36:56;;;;;;;3.80;1.48;;;;;;;12.60;88.18;99533.88;4175842;28;20032;-65
2023/10/30 06:39:01;;;;;;;2.55;1.52;;;;;;;12.57;88.34;99535.63;4177083;28;20037;-65
2023/10/30 06:41:04;;;;;;;5.97;2.03;;;;;;;12.68;87.93;99521.63;4172902;28;20036;-65
2023/10/30 06:43:07;;;;;;;4.60;1.55;;;;;;;12.72;87.03;99513.75;4174508;28;20521;-65
2023/10/30 06:45:10;;;;;;;4.80;1.70;;;;;;;12.66;86.65;99512.94;4171143;28;20214;-65
2023/10/30 06:47:13;;;;;;;2.90;1.50;;;;;;;12.66;86.88;99508.63;4173832;28;20041;-64
2023/10/30 06:49:17;;;;;;;5.55;2.10;;;;;;;12.62;87.15;99500.84;4177247;28;20506;-64
2023/10/30 06:51:20;;;;;;;3.92;1.85;;;;;;;12.56;87.16;99489.56;4171783;28;20033;-64
2023/10/30 06:53:22;;;;;;;3.15;1.20;;;;;;;12.50;87.50;99489.63;4171708;28;20604;-64
2023/10/30 06:55:25;;;;;;;6.55;1.80;;;;;;;12.50;88.03;99492.25;4170238;28;20083;-64
2023/10/30 06:57:28;;;;;;;4.10;1.30;;;;;;;12.49;88.62;99487.06;4174904;28;20037;-64
2023/10/30 06:59:31;;;;;;;5.38;1.60;;;;;;;12.54;88.57;99490.47;4172771;28;20319;-64
2023/10/30 07:01:39;;;;;;;2.80;1.48;;;;;;;12.51;88.53;99486.16;4175239;28;20533;-64
2023/10/30 07:03:42;;;;;;;6.35;1.65;;;;;;;12.65;87.83;99479.94;4172840;28;20048;-63
2023/10/30 07:05:46;;;;;;;7.70;2.80;;;;;;;12.60;88.21;99495.66;4176022;28;20036;-65
2023/10/30 07:07:49;;;;;;;8.60;3.22;;;;;;;12.52;87.97;99487.88;4170660;28;20033;-64
2023/10/30 07:09:52;;;;;;;9.10;2.70;;;;;;;12.51;89.29;99508.75;4171264;28;20087;-64
2023/10/30 07:11:55;;;;;;;8.55;3.50;;;;;;;12.52;89.38;99526.97;4177805;28;20071;-63
2023/10/30 07:13:58;;;;;;;6.13;3.00;;;;;;;12.55;89.19;99532.16;4175881;28;20367;-63
2023/10/30 07:16:01;;;;;;;11.65;4.15;;;;;;;12.60;89.52;99533.88;4170487;28;20116;-64
2023/10/30 07:18:04;;;;;;;7.32;3.40;;;;;;;12.60;90.03;99545.19;4176916;28;20048;-64
2023/10/30 07:20:08;;;;;;;7.07;4.07;;;;;;;12.67;89.45;99546.81;4177155;28;20402;-64
2023/10/30 07:22:13;;;;;;;7.13;4.30;;;;;;;12.74;89.05;99525.03;4172533;28;20412;-64
2023/10/30 07:24:16;;;;;;;6.57;3.38;;;;;;;12.72;88.96;99533.78;4174736;28;20537;-64
2023/10/30 07:26:21;;;;;;;8.30;3.58;;;;;;;12.72;89.14;99554.63;4173580;28;20041;-65
2023/10/30 07:28:24;;;;;;;8.48;3.53;;;;;;;12.71;89.07;99555.50;4176140;28;20037;-66
2023/10/30 07:30:27;;;;;;;8.32;3.70;;;;;;;12.77;89.02;99546.75;4175921;28;20040;-68
2023/10/30 07:32:30;;;;;;;8.98;3.67;;;;;;;12.74;88.88;99535.47;4175664;28;20043;-68
2023/10/30 07:34:33;;;;;;;7.37;3.90;;;;;;;12.81;88.38;99532.81;4167703;28;20036;-69
2023/10/30 07:36:36;;;;;;;10.07;4.07;;;;;;;12.87;88.25;99523.16;4167747;28;20121;-68
2023/10/30 07:38:41;;;;;;;8.90;5.00;;;;;;;12.88;87.97;99509.25;4176873;28;20040;-68
2023/10/30 07:40:44;;;;;;;7.82;3.95;;;;;;;12.82;87.97;99508.44;4175725;28;20479;-70
2023/10/30 07:42:47;;;;;;;7.13;3.83;;;;;;;12.82;88.20;99505.84;4174597;28;20040;-69
2023/10/30 07:44:50;;;;;;;6.35;3.70;;;;;;;12.84;87.96;99504.94;4190614;28;20087;-69
2023/10/30 07:46:53;;;;;;;9.80;5.78;;;;;;;12.84;88.29;99506.69;4167868;28;20072;-67
2023/10/30 07:48:56;;;;;;;8.57;4.55;;;;;;;12.82;88.66;99511.03;4173127;28;20048;-68
2023/10/30 07:51:02;;;;;;;9.45;4.40;;;;;;;12.80;88.86;99512.81;4170734;28;20389;-64
2023/10/30 07:53:05;;;;;;;11.15;4.68;;;;;;;12.82;89.33;99518.88;4172083;28;20368;-64
2023/10/30 07:55:08;;;;;;;10.43;5.60;;;;;;;12.84;89.24;99512.78;4170757;28;20045;-64
2023/10/30 07:57:11;;;;;;;7.30;4.28;;;;;;;12.87;88.75;99515.34;4172993;28;20068;-64
2023/10/30 07:59:15;;;;;;;8.80;4.80;;;;;;;12.87;89.42;99517.94;4172932;28;20102;-64
2023/10/30 08:01:20;;;;;;;9.50;3.87;;;;;;;12.88;89.11;99514.47;4155891;28;20048;-64
2023/10/30 08:03:23;;;;;;;6.07;3.42;;;;;;;12.86;89.65;99533.63;4169434;28;20074;-64
2023/10/30 08:05:27;;;;;;;6.32;3.22;;;;;;;12.81;89.55;99557.16;4171266;28;20032;-64
2023/10/30 08:07:29;;;;;;;6.57;2.97;;;;;;;12.77;89.68;99558.03;4177915;28;20407;-64
2023/10/30 08:09:32;;;;;;;5.50;2.67;;;;;;;12.77;89.72;99570.22;4177170;28;20033;-64
2023/10/30 08:11:37;;;;;;;7.75;2.60;;;;;;;12.70;89.98;99572.91;4170545;28;20076;-64
2023/10/30 08:13:39;;;;;;;4.65;2.22;;;;;;;12.66;89.75;99568.59;4173032;28;20037;-64
2023/10/30 08:15:42;;;;;;;4.40;2.08;;;;;;;12.68;90.18;99579.00;4176902;28;20073;-65
2023/10/30 08:17:45;;;;;;;4.03;2.10;;;;;;;12.68;90.17;99584.22;4159017;28;20033;-64
2023/10/30 08:19:48;;;;;;;4.10;2.10;;;;;;;12.71;90.15;99590.25;4175387;28;20537;-64
2023/10/30 08:21:51;;;;;;;3.80;2.10;;;;;;;12.76;90.09;99592.81;4176922;28;20033;-64
2023/10/30 08:23:54;;;;;;;3.55;1.60;;;;;;;12.78;89.93;99600.66;4176459;28;20462;-64
2023/10/30 08:25:57;;;;;;;5.53;2.00;;;;;;;12.77;89.79;99601.53;4175165;28;20037;-64
2023/10/30 08:28:01;;;;;;;5.35;2.45;;;;;;;12.78;90.01;99587.63;4170514;28;20450;-64
2023/10/30 08:30:05;;;;;;;4.78;1.88;;;;;;;12.84;89.86;99559.72;4175979;28;20372;-65
2023/10/30 08:32:08;;;;;;;;;;;;;;;12.85;89.84;99544.91;4174666;28;20048;-64
2023/10/30 08:34:10;;;;;;;6.80;2.10;;;;;;;13.02;88.46;99543.00;4172529;28;19921;-64
2023/10/30 08:36:21;;;;;;;4.70;2.20;;;;;;;13.05;87.99;99527.34;4168903;28;20037;-64
2023/10/30 08:38:24;;;;;;;8.07;2.13;;;;;;;13.08;88.57;99516.00;4191588;28;20056;-64
2023/10/30 08:40:26;;;;;;;6.68;2.28;;;;;;;13.16;88.52;99508.94;4174452;28;20041;-64
2023/10/30 08:42:29;;;;;;;6.80;3.33;;;;;;;13.27;87.58;99506.19;4180956;28;20033;-64
2023/10/30 08:44:34;;;;;;;6.55;2.42;;;;;;;13.25;87.84;99514.03;4174766;28;20036;-64
2023/10/30 08:46:36;;;;;;;7.72;1.90;;;;;;;13.28;87.71;99518.38;4178194;28;20040;-64
2023/10/30 08:48:40;;;;;;;8.70;3.88;;;;;;;13.37;88.01;99517.44;4180505;28;20037;-64
2023/10/30 08:50:43;;;;;;;8.50;3.75;;;;;;;13.40;87.50;99512.16;4179429;28;20044;-64
2023/10/30 08:52:45;;;;;;;11.45;7.13;;;;;;;13.47;87.09;99503.38;4178473;28;20056;-64
2023/10/30 08:54:48;;;;;;;11.55;6.47;;;;;;;13.43;86.94;99507.78;4180199;28;20041;-65
2023/10/30 08:56:51;;;;;;;11.27;7.05;;;;;;;13.46;87.02;99504.25;4176257;28;20116;-64
2023/10/30 08:59:06;;;;;;;12.15;5.57;;;;;;;13.49;87.25;99511.19;4178154;28;20044;-64
2023/10/30 09:01:10;;;;;;;7.93;4.70;;;;;;;13.64;87.42;99499.66;4176047;28;20133;-65
2023/10/30 09:03:22;;;;;;;5.28;2.97;;;;;;;13.66;87.13;99497.91;4178238;28;20044;-64
2023/10/30 09:05:25;;;;;;;7.63;3.30;;;;;;;13.69;87.58;99508.31;4175272;28;20041;-64
2023/10/30 09:07:29;;;;;;;5.05;2.75;;;;;;;13.84;86.50;99486.31;4171499;28;20048;-64
2023/10/30 09:09:33;;;;;;;4.93;2.25;;;;;;;13.72;86.08;99493.44;4172518;28;20120;-64
2023/10/30 09:11:36;;;;;;;5.97;2.50;;;;;;;13.68;87.16;99490.91;4171570;28;20040;-64
2023/10/30 09:13:39;;;;;;;3.75;1.90;;;;;;;13.72;87.27;99487.38;4174103;28;20076;-64
2023/10/30 09:15:42;;;;;;;3.60;1.52;;;;;;;13.87;85.77;99492.38;4179446;28;20083;-64
2023/10/30 09:17:46;;;;;;;4.30;1.80;;;;;;;13.83;86.45;99495.91;4176712;28;20041;-64
2023/10/30 09:19:49;;;;;;;;;;;;;;;13.82;87.63;99495.94;4174204;28;20446;-65
2023/10/30 09:21:53;;;;;;;4.82;2.10;;;;;;;13.89;87.28;99497.59;4173506;28;19935;-65
2023/10/30 09:23:58;;;;;;;1.80;1.30;;;;;;;13.89;87.28;99489.75;4176900;28;20116;-65
2023/10/30 09:26:02;;;;;;;5.45;1.52;;;;;;;13.89;88.03;99480.16;4172966;28;20063;-64
2023/10/30 09:28:05;;;;;;;1.65;1.05;;;;;;;13.99;87.16;99469.53;4175456;28;20497;-64
2023/10/30 09:30:08;;;;;;;5.90;1.35;;;;;;;13.96;87.63;99460.88;4180159;28;20033;-64
2023/10/30 09:32:11;;;;;;;6.47;1.42;;;;;;;14.03;87.63;99450.31;4170871;28;20412;-65
2023/10/30 09:34:15;;;;;;;1.40;1.10;;;;;;;14.08;88.06;99449.34;4174119;28;20045;-64
2023/10/30 09:36:18;;;;;;;3.83;1.80;;;;;;;14.04;86.93;99452.91;4174673;28;20499;-65
2023/10/30 09:38:22;;;;;;;3.92;1.27;;;;;;;14.03;87.09;99445.97;4184507;28;20426;-64
2023/10/30 09:40:26;;;;;;;1.67;1.02;;;;;;;14.09;87.44;99443.25;4169070;28;20040;-65
2023/10/30 09:42:29;;;;;;;2.95;1.45;;;;;;;14.18;86.69;99433.50;4177265;28;20158;-64